createdAt,value
2023-04-09T00:00:10.494Z,0.57
2023-04-09T00:04:11.025Z,0.57
2023-04-09T00:08:10.342Z,0.57
2023-04-09T00:12:10.500Z,0.57
2023-04-09T00:16:11.031Z,0.57
2023-04-09T00:20:11.997Z,0.59
2023-04-09T00:24:10.995Z,0.57
2023-04-09T00:28:10.945Z,0.58
2023-04-09T00:32:11.499Z,0.58
2023-04-09T00:36:11.542Z,0.57
2023-04-09T00:40:11.500Z,0.57
2023-04-09T00:44:11.409Z,0.58
2023-04-09T00:48:12.031Z,0.57
2023-04-09T00:52:12.024Z,0.56
2023-04-09T00:56:12.027Z,0.58
2023-04-09T01:00:12.020Z,0.57
2023-04-09T01:04:11.999Z,0.58
2023-04-09T01:08:12.534Z,0.57
2023-04-09T01:12:12.221Z,0.57
2023-04-09T01:16:12.555Z,0.57
2023-04-09T01:20:12.529Z,0.57
2023-04-09T01:24:12.532Z,0.58
2023-04-09T01:28:13.013Z,0.57
2023-04-09T01:32:12.798Z,0.56
2023-04-09T01:36:13.067Z,0.57
2023-04-09T01:40:13.027Z,0.57
2023-04-09T01:44:13.182Z,0.57
2023-04-09T01:48:13.317Z,0.56
2023-04-09T01:52:13.409Z,0.56
2023-04-09T01:56:16.027Z,0.55
2023-04-09T02:00:14.042Z,0.57
2023-04-09T02:04:13.852Z,0.57
2023-04-09T02:08:14.006Z,0.57
2023-04-09T02:12:14.567Z,0.56
2023-04-09T02:16:14.591Z,0.57
2023-04-09T02:20:14.415Z,0.56
2023-04-09T02:24:14.512Z,0.56
2023-04-09T02:28:15.047Z,0.56
2023-04-09T02:32:15.048Z,0.55
2023-04-09T02:36:15.171Z,0.54
2023-04-09T02:40:15.051Z,0.54
2023-04-09T02:44:15.549Z,0.54
2023-04-09T02:48:15.347Z,0.54
2023-04-09T02:52:15.452Z,0.54
2023-04-09T02:56:16.075Z,0.53
2023-04-09T03:00:15.719Z,0.54
2023-04-09T03:04:16.088Z,0.53
2023-04-09T03:08:16.007Z,0.53
2023-04-09T03:12:16.551Z,0.53
2023-04-09T03:16:16.617Z,0.52
2023-04-09T03:20:16.421Z,0.53
2023-04-09T03:24:17.046Z,0.53
2023-04-09T03:28:17.079Z,0.54
2023-04-09T03:32:18.958Z,0.53
2023-04-09T03:36:17.048Z,0.54
2023-04-09T03:40:17.143Z,0.52
2023-04-09T03:44:17.244Z,0.53
2023-04-09T03:48:17.586Z,0.53
2023-04-09T03:52:17.519Z,0.53
2023-04-09T03:56:18.094Z,0.53
2023-04-09T04:00:17.780Z,0.53
2023-04-09T04:04:19.890Z,0.52
2023-04-09T04:08:17.917Z,0.53
2023-04-09T04:12:18.063Z,0.53
2023-04-09T04:16:18.136Z,0.53
2023-04-09T04:20:17.803Z,0.53
2023-04-09T04:24:18.074Z,0.53
2023-04-09T04:28:17.713Z,0.53
2023-04-09T04:32:18.100Z,0.51
2023-04-09T04:36:17.635Z,0.53
2023-04-09T04:40:18.080Z,0.54
2023-04-09T04:44:17.551Z,0.52
2023-04-09T04:48:17.586Z,0.52
2023-04-09T04:52:17.861Z,0.53
2023-04-09T04:56:17.569Z,0.53
2023-04-09T05:00:18.118Z,0.52
2023-04-09T05:04:17.901Z,0.53
2023-04-09T05:08:18.074Z,0.54
2023-04-09T05:12:18.596Z,0.53
2023-04-09T05:16:18.323Z,0.53
2023-04-09T05:20:18.490Z,0.52
2023-04-09T05:24:18.598Z,0.53
2023-04-09T05:28:18.723Z,0.53
2023-04-09T05:32:19.120Z,0.53
2023-04-09T05:36:19.050Z,0.54
2023-04-09T05:40:19.619Z,0.53
2023-04-09T05:44:19.603Z,0.54
2023-04-09T05:48:19.599Z,0.53
2023-04-09T05:52:20.097Z,0.54
2023-04-09T05:56:19.790Z,0.53
2023-04-09T06:00:20.088Z,0.52
2023-04-09T06:04:20.293Z,0.53
2023-04-09T06:08:20.634Z,0.52
2023-04-09T06:12:20.389Z,0.53
2023-04-09T06:16:20.760Z,0.53
2023-04-09T06:20:20.713Z,0.52
2023-04-09T06:24:21.103Z,0.53
2023-04-09T06:28:21.136Z,0.53
2023-04-09T06:32:21.162Z,0.52
2023-04-09T06:36:21.632Z,0.53
2023-04-09T06:40:23.095Z,0.52
2023-04-09T06:44:21.645Z,0.52
2023-04-09T06:48:22.125Z,0.53
2023-04-09T06:52:21.974Z,0.52
2023-04-09T06:56:22.635Z,0.52
2023-04-09T07:00:22.324Z,0.52
2023-04-09T07:04:22.768Z,0.52
2023-04-09T07:08:22.636Z,0.53
2023-04-09T07:12:22.764Z,0.52
2023-04-09T07:16:23.145Z,0.51
2023-04-09T07:20:23.116Z,0.51
2023-04-09T07:24:23.506Z,0.51
2023-04-09T07:28:23.622Z,0.51
2023-04-09T07:32:23.633Z,0.52
2023-04-09T07:36:24.147Z,0.52
2023-04-09T07:40:23.936Z,0.52
2023-04-09T07:44:24.167Z,0.52
2023-04-09T07:48:24.652Z,0.51
2023-04-09T07:52:24.434Z,0.51
2023-04-09T07:56:24.638Z,0.51
2023-04-09T08:00:24.813Z,0.51
2023-04-09T08:04:25.226Z,0.50
2023-04-09T08:08:25.025Z,0.52
2023-04-09T08:12:25.658Z,0.51
2023-04-09T08:16:25.709Z,0.50
2023-04-09T08:20:25.637Z,0.51
2023-04-09T08:24:25.725Z,0.50
2023-04-09T08:28:25.840Z,0.51
2023-04-09T08:32:26.201Z,0.52
2023-04-09T08:36:26.670Z,0.53
2023-04-09T08:40:26.648Z,0.52
2023-04-09T08:44:26.674Z,0.52
2023-04-09T08:48:26.807Z,0.52
2023-04-09T08:52:26.895Z,0.51
2023-04-09T08:56:27.679Z,0.53
2023-04-09T09:00:27.661Z,0.52
2023-04-09T09:04:27.445Z,0.51
2023-04-09T09:08:27.520Z,0.51
2023-04-09T09:12:28.203Z,0.51
2023-04-09T09:16:28.202Z,0.51
2023-04-09T09:20:28.156Z,0.51
2023-04-09T09:24:28.175Z,0.52
2023-04-09T09:28:28.227Z,0.52
2023-04-09T09:32:28.697Z,0.51
2023-04-09T09:36:28.665Z,0.51
2023-04-09T09:40:28.720Z,0.51
2023-04-09T09:44:28.728Z,0.51
2023-04-09T09:48:29.207Z,0.52
2023-04-09T09:52:28.945Z,0.50
2023-04-09T09:56:29.188Z,0.51
2023-04-09T10:00:29.181Z,0.51
2023-04-09T10:04:29.305Z,0.51
2023-04-09T10:08:29.673Z,0.51
2023-04-09T10:12:29.676Z,0.52
2023-04-09T10:16:29.849Z,0.50
2023-04-09T10:20:29.699Z,0.51
2023-04-09T10:24:29.725Z,0.51
2023-04-09T10:28:30.166Z,0.51
2023-04-09T10:32:30.217Z,0.51
2023-04-09T10:36:30.213Z,0.50
2023-04-09T10:40:30.172Z,0.50
2023-04-09T10:44:30.151Z,0.51
2023-04-09T10:48:30.216Z,0.52
2023-04-09T10:52:30.323Z,0.51
2023-04-09T10:56:30.668Z,0.52
2023-04-09T11:00:30.679Z,0.51
2023-04-09T11:04:30.561Z,0.52
2023-04-09T11:08:30.601Z,0.52
2023-04-09T11:12:30.690Z,0.53
2023-04-09T11:16:31.297Z,0.52
2023-04-09T11:20:30.777Z,0.53
2023-04-09T11:24:31.181Z,0.52
2023-04-09T11:28:30.984Z,0.52
2023-04-09T11:32:31.232Z,0.51
2023-04-09T11:36:31.202Z,0.52
2023-04-09T11:40:31.158Z,0.51
2023-04-09T11:44:31.217Z,0.51
2023-04-09T11:48:31.716Z,0.51
2023-04-09T11:52:31.707Z,0.51
2023-04-09T11:56:31.718Z,0.52
2023-04-09T12:00:31.363Z,0.52
2023-04-09T12:04:31.774Z,0.52
2023-04-09T12:08:31.521Z,0.52
2023-04-09T12:12:31.725Z,0.50
2023-04-09T12:16:31.724Z,0.51
2023-04-09T12:20:31.701Z,0.51
2023-04-09T12:24:32.226Z,0.52
2023-04-09T12:28:32.261Z,0.54
2023-04-09T12:32:31.857Z,0.54
2023-04-09T12:36:32.226Z,0.54
2023-04-09T12:40:31.954Z,0.53
2023-04-09T12:44:32.220Z,0.52
2023-04-09T12:48:32.242Z,0.54
2023-04-09T12:52:32.237Z,0.51
2023-04-09T12:56:32.226Z,0.53
2023-04-09T13:00:32.254Z,0.53
2023-04-09T13:04:39.298Z,0.51
2023-04-09T13:08:32.240Z,0.52
2023-04-09T13:12:32.232Z,0.52
2023-04-09T13:16:32.303Z,0.51
2023-04-09T13:20:32.114Z,0.52
2023-04-09T13:24:32.259Z,0.52
2023-04-09T13:28:32.284Z,0.53
2023-04-09T13:32:32.298Z,0.51
2023-04-09T13:36:31.941Z,0.52
2023-04-09T13:40:31.926Z,0.51
2023-04-09T13:44:32.279Z,0.52
2023-04-09T13:48:32.276Z,0.53
2023-04-09T13:52:32.299Z,0.52
2023-04-09T13:56:31.950Z,0.53
2023-04-09T14:00:32.049Z,0.54
2023-04-09T14:04:32.341Z,0.55
2023-04-09T14:08:32.273Z,0.55
2023-04-09T14:12:32.276Z,0.57
2023-04-09T14:16:32.406Z,0.55
2023-04-09T14:20:32.378Z,0.54
2023-04-09T14:24:32.788Z,0.54
2023-04-09T14:28:32.791Z,0.54
2023-04-09T14:32:32.803Z,0.53
2023-04-09T14:36:32.608Z,0.53
2023-04-09T14:40:32.677Z,0.53
2023-04-09T14:44:33.315Z,0.51
2023-04-09T14:48:32.874Z,0.53
2023-04-09T14:52:33.282Z,0.51
2023-04-09T14:56:32.891Z,0.51
2023-04-09T15:00:33.268Z,0.52
2023-04-09T15:04:33.413Z,0.50
2023-04-09T15:08:33.289Z,0.50
2023-04-09T15:12:33.303Z,0.52
2023-04-09T15:16:33.219Z,0.53
2023-04-09T15:20:33.207Z,0.52
2023-04-09T15:24:33.280Z,0.54
2023-04-09T15:28:33.769Z,0.54
2023-04-09T15:32:33.407Z,0.54
2023-04-09T15:36:33.791Z,0.54
2023-04-09T15:40:33.554Z,0.53
2023-04-09T15:44:33.779Z,0.55
2023-04-09T15:48:33.815Z,0.54
2023-04-09T15:52:33.724Z,0.54
2023-04-09T15:56:33.789Z,0.54
2023-04-09T16:00:34.305Z,0.55
2023-04-09T16:04:34.296Z,0.55
2023-04-09T16:08:34.289Z,0.55
2023-04-09T16:12:34.113Z,0.55
2023-04-09T16:16:34.369Z,0.54
2023-04-09T16:20:34.207Z,0.55
2023-04-09T16:24:34.308Z,0.56
2023-04-09T16:28:35.332Z,0.55
2023-04-09T16:32:34.496Z,0.54
2023-04-09T16:36:34.551Z,0.56
2023-04-09T16:40:34.817Z,0.54
2023-04-09T16:44:34.828Z,0.56
2023-04-09T16:48:34.748Z,0.53
2023-04-09T16:52:34.792Z,0.55
2023-04-09T16:56:34.838Z,0.55
2023-04-09T17:00:35.097Z,0.57
2023-04-09T17:04:35.313Z,0.56
2023-04-09T17:08:35.061Z,0.56
2023-04-09T17:12:35.296Z,0.57
2023-04-09T17:16:35.256Z,0.56
2023-04-09T17:20:35.818Z,0.59
2023-04-09T17:24:35.840Z,0.56
2023-04-09T17:28:35.572Z,0.59
2023-04-09T17:32:35.842Z,0.57
2023-04-09T17:36:35.755Z,0.59
2023-04-09T17:40:36.330Z,0.59
2023-04-09T17:44:36.332Z,0.59
2023-04-09T17:48:36.072Z,0.58
2023-04-09T17:52:36.335Z,0.58
2023-04-09T17:56:36.278Z,0.57
2023-04-09T18:00:36.836Z,0.59
2023-04-09T18:04:37.082Z,0.60
2023-04-09T18:08:36.587Z,0.59
2023-04-09T18:12:36.861Z,0.58
2023-04-09T18:16:36.797Z,0.62
2023-04-09T18:20:37.344Z,0.61
2023-04-09T18:24:37.338Z,0.60
2023-04-09T18:28:37.182Z,0.64
2023-04-09T18:32:37.393Z,0.62
2023-04-09T18:36:37.444Z,0.64
2023-04-09T18:40:37.854Z,0.63
2023-04-09T18:44:37.742Z,0.63
2023-04-09T18:48:37.846Z,0.65
2023-04-09T18:52:38.345Z,0.64
2023-04-09T18:56:38.370Z,0.66
2023-04-09T19:00:38.365Z,0.65
2023-04-09T19:04:38.421Z,0.63
2023-04-09T19:08:38.868Z,0.64
2023-04-09T19:12:38.859Z,0.66
2023-04-09T19:16:38.868Z,0.65
2023-04-09T19:20:38.860Z,0.65
2023-04-09T19:24:38.945Z,0.64
2023-04-09T19:28:39.372Z,0.67
2023-04-09T19:32:39.406Z,0.64
2023-04-09T19:36:39.367Z,0.66
2023-04-09T19:40:39.873Z,0.67
2023-04-09T19:44:39.604Z,0.68
2023-04-09T19:48:39.858Z,0.70
2023-04-09T19:52:39.876Z,0.69
2023-04-09T19:56:40.371Z,0.70
2023-04-09T20:00:40.413Z,0.69
2023-04-09T20:04:40.241Z,0.71
2023-04-09T20:08:40.362Z,0.71
2023-04-09T20:12:40.873Z,0.70
2023-04-09T20:16:40.908Z,0.71
2023-04-09T20:20:40.865Z,0.71
2023-04-09T20:24:40.913Z,0.71
2023-04-09T20:28:41.424Z,0.72
2023-04-09T20:32:41.313Z,0.72
2023-04-09T20:36:41.907Z,0.72
2023-04-09T20:40:41.544Z,0.72
2023-04-09T20:44:41.893Z,0.71
2023-04-09T20:48:41.894Z,0.72
2023-04-09T20:52:42.028Z,0.70
2023-04-09T20:56:42.409Z,0.71
2023-04-09T21:00:42.393Z,0.72
2023-04-09T21:04:42.896Z,0.71
2023-04-09T21:08:42.666Z,0.71
2023-04-09T21:12:42.890Z,0.72
2023-04-09T21:16:43.483Z,0.72
2023-04-09T21:20:43.111Z,0.71
2023-04-09T21:24:43.305Z,0.71
2023-04-09T21:28:43.879Z,0.72
2023-04-09T21:32:43.679Z,0.71
2023-04-09T21:36:43.907Z,0.71
2023-04-09T21:40:43.941Z,0.72
2023-04-09T21:44:44.458Z,0.72
2023-04-09T21:48:44.275Z,0.71
2023-04-09T21:52:44.998Z,0.71
2023-04-09T21:56:44.919Z,0.72
2023-04-09T22:00:44.769Z,0.71
2023-04-09T22:04:44.946Z,0.71
2023-04-09T22:08:55.525Z,0.70
2023-04-09T22:12:46.070Z,0.70
2023-04-09T22:16:45.414Z,0.71
2023-04-09T22:20:45.373Z,0.70
2023-04-09T22:24:45.909Z,0.71
2023-04-09T22:28:45.924Z,0.70
2023-04-09T22:32:45.964Z,0.71
2023-04-09T22:36:46.437Z,0.70
2023-04-09T22:40:46.189Z,0.72
2023-04-09T22:44:46.412Z,0.71
2023-04-09T22:48:46.495Z,0.72
2023-04-09T22:52:46.960Z,0.71
2023-04-09T22:56:46.860Z,0.72
2023-04-09T23:00:47.587Z,0.71
2023-04-09T23:04:47.444Z,0.71
2023-04-09T23:08:47.366Z,0.71
2023-04-09T23:12:47.936Z,0.70
2023-04-09T23:16:47.719Z,0.69
2023-04-09T23:20:47.926Z,0.70
2023-04-09T23:24:48.127Z,0.69
2023-04-09T23:28:48.441Z,0.67
2023-04-09T23:32:48.975Z,0.69
2023-04-09T23:36:48.686Z,0.69
2023-04-09T23:40:48.960Z,0.68
2023-04-09T23:44:49.426Z,0.68
2023-04-09T23:48:49.252Z,0.67
2023-04-09T23:52:49.448Z,0.67
2023-04-09T23:56:49.646Z,0.66
